Time Latitude Longitude Accuracy (66% radius in meters) Altitude (meters) Speed (km/hour) Bearing (degrees) Battery (%) GPS flag
09:56:46 56.387589 43.737134 23 86.099998474121 0 0 9 1 delete
10:56:34 56.387590 43.737138 10 86.800003051758 0 0 9 0 delete
09:56:20 56.387588 43.737133 141 86.099998474121 0 0 9 1 delete
10:56:12 56.387590 43.737138 10 86.800003051758 0 0 9 0 delete
09:56:00 56.387588 43.737133 13 86.199996948242 0 0 9 1 delete
09:55:48 56.387587 43.737132 8 86.099998474121 0 0 9 1 delete
09:55:37 56.387589 43.737137 9 86.199996948242 0 0 9 1 delete
09:55:28 56.387590 43.737138 10 86.800003051758 0 0 9 1 delete
09:55:26 56.387603 43.737137 7 88 0 0 9 1 delete
09:55:15 56.387678 43.737074 7 94 1 203 9 1 delete
09:55:14 56.387737 43.737072 6 96.300003051758 1 192.10000610352 9 1 delete
09:55:03 56.387765 43.737036 9 98.699996948242 0 0 9 1 delete
09:55:01 56.387767 43.737014 8 99 0 0 9 1 delete
09:54:52 56.387852 43.737071 10 100.59999847412 3.288236618042 84.400001525879 9 1 delete
09:54:51 56.387831 43.736979 9 101.59999847412 3.0413813591003 98.699996948242 9 1 delete
09:54:49 56.387820 43.736893 7 102.5 3.25 103.5 9 1 delete
09:54:46 56.387860 43.736720 7 102.80000305176 2.4622144699097 84.099998474121 9 1 delete
09:54:42 56.387835 43.736547 10 96.800003051758 3.288236618042 118.40000152588 9 1 delete
09:54:40 56.387871 43.736446 9 97.300003051758 3.0413813591003 109.19999694824 9 1 delete
09:54:38 56.387871 43.736337 11 101.19999694824 3 90.300003051758 9 1 delete
09:54:34 56.387842 43.736091 12 98.199996948242 1.8200274705887 95.400001525879 9 1 delete
09:54:29 56.387881 43.735937 15 93.699996948242 2.7950849533081 106.30000305176 9 1 delete
09:54:28 56.387913 43.735929 16 95.300003051758 3.288236618042 107.59999847412 9 1 delete
09:54:25 56.387932 43.735672 15 96.800003051758 2.25 92.300003051758 9 1 delete
09:54:18 56.387925 43.735425 10 95.199996948242 2.0155644416809 133.60000610352 9 1 delete
09:54:17 56.388019 43.735442 11 97.699996948242 1.8200274705887 112.09999847412 9 1 delete
09:54:13 56.388017 43.735231 14 101.69999694824 1.5811388492584 129.89999389648 9 1 delete
09:54:07 56.388057 43.735118 13 99.900001525879 2.4622144699097 147.69999694824 9 1 delete
09:54:04 56.388102 43.735095 11 102.30000305176 2 142.5 9 1 delete
09:53:56 56.388203 43.735031 6 101 3 180.80000305176 9 1 delete
09:53:45 56.388260 43.735140 6 103.09999847412 0 0 9 1 delete
09:53:33 56.388254 43.735138 6 103 0 0 9 1 delete
09:53:22 56.388276 43.735147 9 105.19999694824 0 0 9 1 delete
09:53:14 56.388293 43.735141 10 107.40000152588 2.2360680103302 163.80000305176 9 1 delete
09:53:11 56.388337 43.735141 7 105.59999847412 2.3048861026764 174.19999694824 9 1 delete
09:53:08 56.388397 43.735110 5 104.5 3.5794553756714 158.80000305176 9 1 delete
09:53:03 56.388513 43.735106 5 99.5 1.8200274705887 227.10000610352 9 1 delete
09:52:59 56.388523 43.735155 5 96 4.0311288833618 278.29998779297 9 1 delete
09:52:57 56.388501 43.735271 5 97.900001525879 5.8363089561462 272.5 9 1 delete
09:52:53 56.388468 43.735529 7 102.09999847412 4.75 265.20001220703 9 1 delete
09:52:51 56.388471 43.735734 6 103.40000152588 3.7831864356995 268.60000610352 9 1 delete
09:52:48 56.388436 43.735883 8 101.69999694824 3.288236618042 334.20001220703 9 1 delete
09:52:47 56.388409 43.735904 7 100.69999694824 3.288236618042 337.79998779297 9 1 delete
09:52:45 56.388286 43.735923 7 102.40000152588 2.9154758453369 329.60000610352 9 1 delete
09:52:41 56.388168 43.736017 8 100.30000305176 2.4622144699097 298.70001220703 9 1 delete
09:52:35 56.388113 43.736163 5 95.800003051758 1.25 347.39999389648 9 1 delete
09:52:31 56.388094 43.736177 7 92.099998474121 5.0249376296997 336 9 1 delete
09:52:28 56.387979 43.736286 6 91.099998474121 5.25 325.20001220703 9 1 delete
09:52:25 56.387854 43.736359 6 93.900001525879 5.25 346.39999389648 9 1 delete
09:52:24 56.387824 43.736406 6 93.699996948242 5.0249376296997 338.5 9 1 delete